Time,TemperatureF,DewpointF,PressureIn,WindDirection,WindDirectionDegrees,WindSpeedMPH,WindSpeedGustMPH,Humidity,HourlyPrecipIn,Conditions,Clouds,dailyrainin,SolarRadiationWatts/m^2,SoftwareType,DateUTC
2013-01-29 00:01:00,51.3,50.2,30.08,SW,228,6.0,13.0,96,0.00,,,0.00,0,Wunderground v.1.15,2013-01-29 05:01:00,
2013-01-29 00:03:00,51.3,50.5,30.08,WSW,251,6.0,13.0,97,0.00,,,0.00,0,Wunderground v.1.15,2013-01-29 05:03:00,
2013-01-29 00:05:00,51.4,50.6,30.08,SW,215,6.0,13.0,97,0.00,,,0.00,0,Wunderground v.1.15,2013-01-29 05:05:00,
2013-01-29 00:09:00,51.6,50.5,30.08,WSW,241,8.0,13.0,96,0.00,,,0.00,0,Wunderground v.1.15,2013-01-29 05:09:00,
2013-01-29 00:14:00,51.7,50.6,30.08,SW,222,7.0,9.0,96,0.00,,,0.00,0,Wunderground v.1.15,2013-01-29 05:14:00,
2013-01-29 00:20:00,51.8,50.4,30.08,SW,233,5.0,5.0,95,0.00,,,0.00,0,Wunderground v.1.15,2013-01-29 05:20:00,
2013-01-29 00:25:00,51.4,50.0,30.08,SW,223,5.0,6.0,95,0.00,,,0.00,0,Wunderground v.1.15,2013-01-29 05:25:00,
2013-01-29 00:30:00,50.8,49.4,30.08,SSW,205,4.0,4.0,95,0.00,,,0.00,0,Wunderground v.1.15,2013-01-29 05:30:00,
2013-01-29 00:36:00,50.2,48.8,30.07,WSW,252,3.0,4.0,95,0.00,,,0.00,0,Wunderground v.1.15,2013-01-29 05:36:00,
2013-01-29 00:41:00,49.6,48.2,30.07,SSW,209,4.0,7.0,95,0.00,,,0.00,0,Wunderground v.1.15,2013-01-29 05:41:00,
2013-01-29 00:46:00,48.8,47.7,30.07,SSW,207,4.0,7.0,96,0.00,,,0.00,0,Wunderground v.1.15,2013-01-29 05:46:00,
2013-01-29 00:52:00,47.9,47.1,30.07,SSW,212,3.0,8.0,97,0.00,,,0.00,0,Wunderground v.1.15,2013-01-29 05:52:00,
2013-01-29 00:57:00,47.2,46.7,30.07,SSW,208,4.0,8.0,98,0.00,,,0.00,0,Wunderground v.1.15,2013-01-29 05:57:00,
2013-01-29 01:03:00,46.6,46.3,30.07,SSW,207,4.0,10.0,99,0.00,,,0.00,0,Wunderground v.1.15,2013-01-29 06:03:00,
2013-01-29 01:08:00,46.3,46.3,30.08,SW,221,5.0,10.0,100,0.00,,,0.00,0,Wunderground v.1.15,2013-01-29 06:08:00,
2013-01-29 01:14:00,46.1,46.1,30.07,SW,234,6.0,8.0,100,0.00,,,0.00,0,Wunderground v.1.15,2013-01-29 06:14:00,
2013-01-29 01:19:00,46.0,46.0,30.08,SW,215,6.0,10.0,100,0.00,,,0.00,0,Wunderground v.1.15,2013-01-29 06:19:00,
2013-01-29 01:24:00,46.0,46.0,30.07,South,188,5.0,6.0,100,0.00,,,0.00,0,Wunderground v.1.15,2013-01-29 06:24:00,
2013-01-29 01:30:00,46.3,46.3,30.07,WSW,247,4.0,4.0,100,0.00,,,0.00,0,Wunderground v.1.15,2013-01-29 06:30:00,
2013-01-29 01:35:00,46.3,46.3,30.07,SSW,206,4.0,7.0,100,0.00,,,0.00,0,Wunderground v.1.15,2013-01-29 06:35:00,
2013-01-29 01:40:00,46.1,46.1,30.07,SW,232,5.0,5.0,100,0.00,,,0.00,0,Wunderground v.1.15,2013-01-29 06:40:00,
2013-01-29 01:46:00,46.1,46.1,30.08,SW,214,3.0,5.0,100,0.00,,,0.00,0,Wunderground v.1.15,2013-01-29 06:46:00,
2013-01-29 01:51:00,45.9,45.9,30.08,South,186,3.0,5.0,100,0.00,,,0.00,0,Wunderground v.1.15,2013-01-29 06:51:00,
2013-01-29 01:56:00,45.8,45.8,30.08,SW,217,4.0,5.0,100,0.00,,,0.00,0,Wunderground v.1.15,2013-01-29 06:56:00,
2013-01-29 02:02:00,45.7,45.7,30.08,South,173,3.0,4.0,100,0.00,,,0.00,0,Wunderground v.1.15,2013-01-29 07:02:00,
2013-01-29 02:08:00,45.7,45.7,30.08,North,350,3.0,9.0,100,0.00,,,0.00,0,Wunderground v.1.15,2013-01-29 07:08:00,
2013-01-29 02:13:00,45.8,45.8,30.08,WSW,254,3.0,4.0,100,0.00,,,0.00,0,Wunderground v.1.15,2013-01-29 07:13:00,
2013-01-29 02:18:00,45.6,45.6,30.08,SSW,198,2.0,4.0,100,0.00,,,0.00,0,Wunderground v.1.15,2013-01-29 07:18:00,
2013-01-29 02:23:00,45.3,45.3,30.08,SSW,211,1.0,4.0,100,0.00,,,0.00,0,Wunderground v.1.15,2013-01-29 07:23:00,
2013-01-29 02:29:00,45.1,45.1,30.09,SW,232,1.0,4.0,100,0.00,,,0.00,0,Wunderground v.1.15,2013-01-29 07:29:00,
2013-01-29 02:34:00,45.0,45.0,30.08,South,190,2.0,3.0,100,0.00,,,0.00,0,Wunderground v.1.15,2013-01-29 07:34:00,
2013-01-29 02:40:00,45.2,45.2,30.08,NW,308,1.0,3.0,100,0.00,,,0.00,0,Wunderground v.1.15,2013-01-29 07:40:00,
2013-01-29 02:45:00,45.2,45.2,30.08,NW,313,2.0,5.0,100,0.00,,,0.00,0,Wunderground v.1.15,2013-01-29 07:45:00,
2013-01-29 02:51:00,45.1,45.1,30.08,NW,315,2.0,3.0,100,0.00,,,0.00,0,Wunderground v.1.15,2013-01-29 07:51:00,
2013-01-29 02:56:00,44.8,44.8,30.08,NW,315,2.0,4.0,100,0.00,,,0.00,0,Wunderground v.1.15,2013-01-29 07:56:00,
2013-01-29 03:02:00,44.6,44.6,30.08,WNW,302,2.0,2.0,100,0.00,,,0.00,0,Wunderground v.1.15,2013-01-29 08:02:00,
2013-01-29 03:07:00,44.5,44.5,30.08,NW,305,2.0,4.0,100,0.00,,,0.00,0,Wunderground v.1.15,2013-01-29 08:07:00,
2013-01-29 03:12:00,44.4,44.4,30.08,NW,304,2.0,2.0,100,0.00,,,0.00,0,Wunderground v.1.15,2013-01-29 08:12:00,
2013-01-29 03:18:00,44.4,44.4,30.08,West,274,1.0,2.0,100,0.00,,,0.00,0,Wunderground v.1.15,2013-01-29 08:18:00,
2013-01-29 03:23:00,44.2,44.2,30.08,NW,311,2.0,5.0,100,0.00,,,0.00,0,Wunderground v.1.15,2013-01-29 08:23:00,
2013-01-29 03:29:00,44.3,44.3,30.08,WNW,292,3.0,5.0,100,0.00,,,0.00,0,Wunderground v.1.15,2013-01-29 08:29:00,
2013-01-29 03:34:00,44.2,44.2,30.08,WNW,298,3.0,5.0,100,0.00,,,0.00,0,Wunderground v.1.15,2013-01-29 08:34:00,
2013-01-29 03:39:00,44.2,44.2,30.08,WNW,292,1.0,5.0,100,0.00,,,0.00,0,Wunderground v.1.15,2013-01-29 08:39:00,
2013-01-29 03:45:00,44.1,44.1,30.08,NW,313,1.0,4.0,100,0.00,,,0.00,0,Wunderground v.1.15,2013-01-29 08:45:00,
2013-01-29 03:50:00,44.0,44.0,30.08,NW,317,1.0,1.0,100,0.00,,,0.00,0,Wunderground v.1.15,2013-01-29 08:50:00,
2013-01-29 03:56:00,43.9,43.9,30.08,NW,315,1.0,3.0,100,0.00,,,0.00,0,Wunderground v.1.15,2013-01-29 08:56:00,
2013-01-29 04:02:00,43.9,43.9,30.08,NW,316,1.0,2.0,100,0.00,,,0.00,0,Wunderground v.1.15,2013-01-29 09:02:00,
2013-01-29 04:07:00,43.8,43.8,30.08,NW,317,1.0,2.0,100,0.00,,,0.00,0,Wunderground v.1.15,2013-01-29 09:07:00,
2013-01-29 04:12:00,43.9,43.9,30.08,NW,308,2.0,5.0,100,0.00,,,0.00,0,Wunderground v.1.15,2013-01-29 09:12:00,
2013-01-29 04:17:00,44.0,44.0,30.08,NW,306,3.0,5.0,100,0.00,,,0.00,0,Wunderground v.1.15,2013-01-29 09:17:00,
2013-01-29 04:23:00,44.0,44.0,30.09,WSW,254,3.0,5.0,100,0.00,,,0.00,0,Wunderground v.1.15,2013-01-29 09:23:00,
2013-01-29 04:28:00,43.9,43.9,30.08,WSW,240,3.0,5.0,100,0.00,,,0.00,0,Wunderground v.1.15,2013-01-29 09:28:00,
2013-01-29 04:33:00,43.9,43.9,30.09,WSW,251,3.0,4.0,100,0.00,,,0.00,0,Wunderground v.1.15,2013-01-29 09:33:00,
2013-01-29 04:39:00,44.0,44.0,30.09,WSW,252,2.0,4.0,100,0.00,,,0.00,0,Wunderground v.1.15,2013-01-29 09:39:00,
2013-01-29 04:44:00,43.9,43.9,30.09,West,276,1.0,2.0,100,0.00,,,0.00,0,Wunderground v.1.15,2013-01-29 09:44:00,
2013-01-29 04:49:00,43.8,43.8,30.08,West,277,1.0,2.0,100,0.00,,,0.00,0,Wunderground v.1.15,2013-01-29 09:49:00,
2013-01-29 04:54:00,43.7,43.7,30.08,West,277,0.0,1.0,100,0.00,,,0.00,0,Wunderground v.1.15,2013-01-29 09:54:00,
2013-01-29 05:00:00,43.8,43.8,30.09,West,275,0.0,1.0,100,0.00,,,0.00,0,Wunderground v.1.15,2013-01-29 10:00:00,
2013-01-29 05:06:00,43.8,43.8,30.09,NW,311,1.0,2.0,100,0.00,,,0.00,0,Wunderground v.1.15,2013-01-29 10:06:00,
2013-01-29 05:11:00,44.0,44.0,30.09,NW,311,1.0,2.0,100,0.00,,,0.00,0,Wunderground v.1.15,2013-01-29 10:11:00,
2013-01-29 05:17:00,43.9,43.9,30.09,NE,42,1.0,3.0,100,0.00,,,0.00,0,Wunderground v.1.15,2013-01-29 10:17:00,
2013-01-29 05:22:00,43.7,43.7,30.09,NE,42,2.0,2.0,100,0.00,,,0.00,0,Wunderground v.1.15,2013-01-29 10:22:00,
2013-01-29 05:27:00,43.7,43.7,30.09,NE,42,2.0,2.0,100,0.00,,,0.00,0,Wunderground v.1.15,2013-01-29 10:27:00,
2013-01-29 05:32:00,43.7,43.7,30.09,NE,41,2.0,2.0,100,0.00,,,0.00,0,Wunderground v.1.15,2013-01-29 10:32:00,
2013-01-29 05:38:00,43.6,43.6,30.09,NE,39,1.0,2.0,100,0.00,,,0.00,0,Wunderground v.1.15,2013-01-29 10:38:00,
2013-01-29 05:43:00,43.4,43.4,30.09,NE,39,0.0,1.0,100,0.00,,,0.00,0,Wunderground v.1.15,2013-01-29 10:43:00,
2013-01-29 05:48:00,43.2,43.2,30.09,NE,40,0.0,2.0,100,0.00,,,0.00,0,Wunderground v.1.15,2013-01-29 10:48:00,
2013-01-29 05:54:00,43.3,43.3,30.09,NE,38,1.0,2.0,100,0.00,,,0.00,0,Wunderground v.1.15,2013-01-29 10:54:00,
2013-01-29 05:59:00,43.4,43.4,30.09,NE,39,1.0,2.0,100,0.00,,,0.00,0,Wunderground v.1.15,2013-01-29 10:59:00,
2013-01-29 06:05:00,43.5,43.5,30.09,NE,41,0.0,1.0,100,0.00,,,0.00,0,Wunderground v.1.15,2013-01-29 11:05:00,
2013-01-29 06:10:00,43.4,43.4,30.09,NE,40,1.0,1.0,100,0.00,,,0.00,0,Wunderground v.1.15,2013-01-29 11:10:00,
2013-01-29 06:16:00,43.3,43.3,30.09,NE,40,1.0,1.0,100,0.00,,,0.00,0,Wunderground v.1.15,2013-01-29 11:16:00,
2013-01-29 06:21:00,43.3,43.3,30.09,NE,41,0.0,0.0,100,0.00,,,0.00,0,Wunderground v.1.15,2013-01-29 11:21:00,
2013-01-29 06:26:00,43.2,43.2,30.09,NE,40,0.0,0.0,100,0.00,,,0.00,0,Wunderground v.1.15,2013-01-29 11:26:00,
2013-01-29 06:32:00,43.3,43.3,30.09,NE,40,0.0,0.0,100,0.00,,,0.00,0,Wunderground v.1.15,2013-01-29 11:32:00,
2013-01-29 06:37:00,43.3,43.3,30.09,NE,41,0.0,3.0,100,0.00,,,0.00,0,Wunderground v.1.15,2013-01-29 11:37:00,
2013-01-29 06:43:00,43.4,43.4,30.09,North,360,1.0,2.0,100,0.00,,,0.00,0,Wunderground v.1.15,2013-01-29 11:43:00,
2013-01-29 06:48:00,43.3,43.3,30.09,North,355,1.0,2.0,100,0.00,,,0.00,0,Wunderground v.1.15,2013-01-29 11:48:00,
2013-01-29 06:53:00,43.2,43.2,30.09,North,360,0.0,0.0,100,0.00,,,0.00,0,Wunderground v.1.15,2013-01-29 11:53:00,
2013-01-29 06:59:00,43.1,43.1,30.09,North,355,0.0,0.0,100,0.00,,,0.00,0,Wunderground v.1.15,2013-01-29 11:59:00,
2013-01-29 07:05:00,43.1,43.1,30.09,North,350,0.0,0.0,100,0.00,,,0.00,0,Wunderground v.1.15,2013-01-29 12:05:00,
2013-01-29 07:10:00,43.1,43.1,30.09,NW,313,0.0,3.0,100,0.00,,,0.00,0,Wunderground v.1.15,2013-01-29 12:10:00,
2013-01-29 07:15:00,43.3,43.3,30.09,NW,311,1.0,3.0,100,0.00,,,0.00,0,Wunderground v.1.15,2013-01-29 12:15:00,
2013-01-29 07:21:00,43.4,43.4,30.10,NW,311,1.0,1.0,100,0.00,,,0.00,0,Wunderground v.1.15,2013-01-29 12:21:00,
2013-01-29 07:26:00,43.3,43.3,30.10,NW,312,0.0,1.0,100,0.00,,,0.00,0,Wunderground v.1.15,2013-01-29 12:26:00,
2013-01-29 07:31:00,43.3,43.3,30.10,NW,309,0.0,0.0,100,0.00,,,0.00,0,Wunderground v.1.15,2013-01-29 12:31:00,
2013-01-29 07:37:00,43.3,43.3,30.10,NW,313,0.0,0.0,100,0.00,,,0.00,0,Wunderground v.1.15,2013-01-29 12:37:00,
2013-01-29 07:42:00,43.3,43.3,30.10,NW,312,0.0,0.0,100,0.00,,,0.00,0,Wunderground v.1.15,2013-01-29 12:42:00,
2013-01-29 07:47:00,43.3,43.3,30.10,NW,311,0.0,2.0,100,0.00,,,0.00,0,Wunderground v.1.15,2013-01-29 12:47:00,
2013-01-29 07:53:00,43.3,43.3,30.11,NW,311,1.0,1.0,100,0.00,,,0.00,0,Wunderground v.1.15,2013-01-29 12:53:00,
2013-01-29 07:58:00,43.3,43.3,30.11,NW,312,0.0,1.0,100,0.00,,,0.00,5,Wunderground v.1.15,2013-01-29 12:58:00,
2013-01-29 08:04:00,43.2,43.2,30.11,NW,312,0.0,0.0,100,0.00,,,0.00,9,Wunderground v.1.15,2013-01-29 13:04:00,
2013-01-29 08:09:00,43.3,43.3,30.11,NW,310,0.0,2.0,100,0.00,,,0.00,7,Wunderground v.1.15,2013-01-29 13:09:00,
2013-01-29 08:14:00,43.4,43.4,30.11,NW,311,0.0,0.0,100,0.00,,,0.00,11,Wunderground v.1.15,2013-01-29 13:14:00,
2013-01-29 08:20:00,43.5,43.5,30.11,NW,313,0.0,0.0,100,0.00,,,0.00,16,Wunderground v.1.15,2013-01-29 13:20:00,
2013-01-29 08:25:00,43.4,43.4,30.11,North,360,0.0,0.0,100,0.00,,,0.00,23,Wunderground v.1.15,2013-01-29 13:25:00,
2013-01-29 08:31:00,43.5,43.5,30.11,NW,312,0.0,1.0,100,0.00,,,0.00,18,Wunderground v.1.15,2013-01-29 13:31:00,
2013-01-29 08:36:00,43.6,43.6,30.11,NW,314,0.0,3.0,100,0.00,,,0.00,26,Wunderground v.1.15,2013-01-29 13:36:00,
2013-01-29 08:41:00,43.7,43.7,30.11,NW,314,1.0,2.0,100,0.00,,,0.00,26,Wunderground v.1.15,2013-01-29 13:41:00,
2013-01-29 08:46:00,43.8,43.8,30.11,NW,311,1.0,2.0,100,0.00,,,0.00,26,Wunderground v.1.15,2013-01-29 13:46:00,
2013-01-29 08:52:00,44.0,44.0,30.11,North,360,1.0,3.0,100,0.00,,,0.00,33,Wunderground v.1.15,2013-01-29 13:52:00,
2013-01-29 08:58:00,44.2,44.2,30.11,West,275,2.0,3.0,100,0.00,,,0.00,25,Wunderground v.1.15,2013-01-29 13:58:00,
2013-01-29 09:03:00,44.4,44.4,30.12,North,360,0.0,1.0,100,0.00,,,0.00,32,Wunderground v.1.15,2013-01-29 14:03:00,
2013-01-29 09:09:00,44.4,44.4,30.12,West,273,0.0,1.0,100,0.00,,,0.00,19,Wunderground v.1.15,2013-01-29 14:09:00,
2013-01-29 09:14:00,44.6,44.6,30.12,West,273,0.0,0.0,100,0.00,,,0.00,18,Wunderground v.1.15,2013-01-29 14:14:00,
2013-01-29 09:19:00,44.6,44.6,30.12,North,360,0.0,0.0,100,0.00,,,0.00,19,Wunderground v.1.15,2013-01-29 14:19:00,
2013-01-29 09:25:00,44.6,44.6,30.12,North,360,0.0,0.0,100,0.00,,,0.00,25,Wunderground v.1.15,2013-01-29 14:25:00,
2013-01-29 09:30:00,44.7,44.7,30.11,West,275,0.0,1.0,100,0.00,,,0.00,35,Wunderground v.1.15,2013-01-29 14:30:00,
2013-01-29 09:35:00,44.7,44.7,30.11,North,360,0.0,2.0,100,0.00,,,0.00,40,Wunderground v.1.15,2013-01-29 14:35:00,
2013-01-29 09:40:00,44.7,44.7,30.11,West,274,1.0,1.0,100,0.00,,,0.00,46,Wunderground v.1.15,2013-01-29 14:40:00,
2013-01-29 09:46:00,44.9,44.9,30.11,North,360,1.0,2.0,100,0.00,,,0.00,49,Wunderground v.1.15,2013-01-29 14:46:00,
2013-01-29 09:51:00,45.0,45.0,30.12,North,360,0.0,0.0,100,0.00,,,0.00,47,Wunderground v.1.15,2013-01-29 14:51:00,
2013-01-29 09:57:00,45.1,45.1,30.12,West,275,0.0,0.0,100,0.00,,,0.00,42,Wunderground v.1.15,2013-01-29 14:57:00,
2013-01-29 10:03:00,45.3,45.3,30.12,West,272,0.0,0.0,100,0.00,,,0.00,53,Wunderground v.1.15,2013-01-29 15:03:00,
2013-01-29 10:08:00,45.5,45.5,30.12,West,275,0.0,0.0,100,0.00,,,0.00,69,Wunderground v.1.15,2013-01-29 15:08:00,
2013-01-29 10:13:00,45.7,45.7,30.12,West,275,0.0,1.0,100,0.00,,,0.00,79,Wunderground v.1.15,2013-01-29 15:13:00,
2013-01-29 10:18:00,46.0,46.0,30.12,West,274,0.0,1.0,100,0.00,,,0.00,95,Wunderground v.1.15,2013-01-29 15:18:00,
2013-01-29 10:24:00,46.3,46.3,30.12,West,275,1.0,1.0,100,0.00,,,0.00,76,Wunderground v.1.15,2013-01-29 15:24:00,
2013-01-29 10:29:00,46.6,46.6,30.12,West,273,0.0,1.0,100,0.00,,,0.00,107,Wunderground v.1.15,2013-01-29 15:29:00,
2013-01-29 10:35:00,47.0,47.0,30.12,North,360,0.0,0.0,100,0.00,,,0.00,111,Wunderground v.1.15,2013-01-29 15:35:00,
2013-01-29 10:40:00,47.2,47.2,30.11,West,275,0.0,1.0,100,0.00,,,0.00,130,Wunderground v.1.15,2013-01-29 15:40:00,
2013-01-29 10:45:00,47.5,47.5,30.11,West,272,0.0,1.0,100,0.00,,,0.00,79,Wunderground v.1.15,2013-01-29 15:45:00,
2013-01-29 10:51:00,47.8,47.8,30.12,West,273,0.0,1.0,100,0.00,,,0.00,77,Wunderground v.1.15,2013-01-29 15:51:00,
2013-01-29 10:56:00,47.9,47.9,30.12,North,360,0.0,1.0,100,0.00,,,0.00,90,Wunderground v.1.15,2013-01-29 15:56:00,
2013-01-29 11:02:00,48.0,48.0,30.11,West,275,0.0,1.0,100,0.00,,,0.00,153,Wunderground v.1.15,2013-01-29 16:02:00,
2013-01-29 11:08:00,48.2,48.2,30.11,West,273,0.0,1.0,100,0.00,,,0.00,123,Wunderground v.1.15,2013-01-29 16:08:00,
2013-01-29 11:13:00,48.4,48.4,30.11,West,273,0.0,0.0,100,0.00,,,0.00,139,Wunderground v.1.15,2013-01-29 16:13:00,
2013-01-29 11:18:00,48.9,48.9,30.11,North,360,0.0,0.0,100,0.00,,,0.00,213,Wunderground v.1.15,2013-01-29 16:18:00,
2013-01-29 11:24:00,49.5,49.5,30.11,West,275,0.0,0.0,100,0.00,,,0.00,155,Wunderground v.1.15,2013-01-29 16:24:00,
2013-01-29 11:29:00,49.8,49.8,30.10,North,360,0.0,1.0,100,0.00,,,0.00,146,Wunderground v.1.15,2013-01-29 16:29:00,
2013-01-29 11:35:00,50.1,50.1,30.09,West,275,0.0,0.0,100,0.00,,,0.00,670,Wunderground v.1.15,2013-01-29 16:35:00,
2013-01-29 11:40:00,50.5,50.5,30.09,North,360,0.0,0.0,100,0.00,,,0.00,313,Wunderground v.1.15,2013-01-29 16:40:00,
2013-01-29 11:46:00,51.1,51.1,30.09,West,276,0.0,0.0,100,0.00,,,0.00,236,Wunderground v.1.15,2013-01-29 16:46:00,
2013-01-29 11:51:00,51.9,51.9,30.09,West,270,0.0,0.0,100,0.00,,,0.00,480,Wunderground v.1.15,2013-01-29 16:51:00,
2013-01-29 11:57:00,52.8,52.8,30.08,West,274,0.0,0.0,100,0.00,,,0.00,221,Wunderground v.1.15,2013-01-29 16:57:00,
2013-01-29 12:02:00,53.6,53.6,30.08,West,265,0.0,0.0,100,0.00,,,0.00,413,Wunderground v.1.15,2013-01-29 17:02:00,
2013-01-29 12:08:00,54.6,54.6,30.07,North,360,1.0,3.0,100,0.00,,,0.00,236,Wunderground v.1.15,2013-01-29 17:08:00,
2013-01-29 12:13:00,55.5,55.2,30.07,WSW,252,1.0,2.0,99,0.00,,,0.00,290,Wunderground v.1.15,2013-01-29 17:13:00,
2013-01-29 12:18:00,56.3,55.5,30.06,SW,231,1.0,5.0,97,0.00,,,0.00,262,Wunderground v.1.15,2013-01-29 17:18:00,
2013-01-29 12:24:00,57.1,56.0,30.06,SSW,199,2.0,3.0,96,0.00,,,0.00,236,Wunderground v.1.15,2013-01-29 17:24:00,
2013-01-29 12:29:00,57.8,56.4,30.05,SSE,165,2.0,4.0,95,0.00,,,0.00,322,Wunderground v.1.15,2013-01-29 17:29:00,
2013-01-29 12:35:00,58.8,56.8,30.04,South,180,2.0,4.0,93,0.00,,,0.00,283,Wunderground v.1.15,2013-01-29 17:35:00,
2013-01-29 12:40:00,59.6,56.7,30.04,North,360,1.0,1.0,90,0.00,,,0.00,487,Wunderground v.1.15,2013-01-29 17:40:00,
2013-01-29 12:45:00,60.6,57.3,30.03,South,186,0.0,3.0,89,0.00,,,0.00,545,Wunderground v.1.15,2013-01-29 17:45:00,
2013-01-29 12:50:00,61.7,57.8,30.03,WSW,252,1.0,9.0,87,0.00,,,0.00,404,Wunderground v.1.15,2013-01-29 17:50:00,
2013-01-29 12:56:00,63.0,58.1,30.02,NW,312,4.0,9.0,84,0.00,,,0.00,476,Wunderground v.1.15,2013-01-29 17:56:00,
2013-01-29 13:02:00,64.0,56.3,30.02,West,273,4.0,6.0,76,0.00,,,0.00,392,Wunderground v.1.15,2013-01-29 18:02:00,
2013-01-29 13:07:00,64.7,56.6,30.01,West,265,4.0,11.0,75,0.00,,,0.00,336,Wunderground v.1.15,2013-01-29 18:07:00,
2013-01-29 13:13:00,65.1,56.2,30.01,West,275,6.0,8.0,73,0.00,,,0.00,492,Wunderground v.1.15,2013-01-29 18:13:00,
2013-01-29 13:18:00,65.6,55.9,30.01,NW,308,5.0,8.0,71,0.00,,,0.00,503,Wunderground v.1.15,2013-01-29 18:18:00,
2013-01-29 13:23:00,65.9,55.8,30.01,SSW,209,6.0,17.0,70,0.00,,,0.01,387,Wunderground v.1.15,2013-01-29 18:23:00,
2013-01-29 13:29:00,66.1,56.0,30.01,SSW,207,7.0,17.0,70,0.00,,,0.01,388,Wunderground v.1.15,2013-01-29 18:29:00,
2013-01-29 13:34:00,66.3,56.2,30.01,SW,214,5.0,12.0,70,0.00,,,0.01,455,Wunderground v.1.15,2013-01-29 18:34:00,
2013-01-29 13:39:00,66.4,55.5,30.00,North,360,6.0,16.0,68,0.00,,,0.01,283,Wunderground v.1.15,2013-01-29 18:39:00,
2013-01-29 13:45:00,66.3,56.2,30.00,West,265,7.0,11.0,70,0.00,,,0.01,299,Wunderground v.1.15,2013-01-29 18:45:00,
2013-01-29 13:50:00,66.3,55.8,30.00,SSW,210,8.0,15.0,69,0.00,,,0.01,336,Wunderground v.1.15,2013-01-29 18:50:00,
2013-01-29 13:55:00,66.3,55.4,30.00,North,360,11.0,15.0,68,0.00,,,0.01,399,Wunderground v.1.15,2013-01-29 18:55:00,
2013-01-29 14:00:00,66.4,55.9,30.00,SSW,204,11.0,11.0,69,0.00,,,0.01,260,Wunderground v.1.15,2013-01-29 19:00:00,
2013-01-29 14:06:00,66.5,56.0,30.00,West,271,9.0,17.0,69,0.00,,,0.01,279,Wunderground v.1.15,2013-01-29 19:06:00,
2013-01-29 14:12:00,66.6,55.7,29.99,SW,217,8.0,9.0,68,0.00,,,0.01,311,Wunderground v.1.15,2013-01-29 19:12:00,
2013-01-29 14:17:00,66.8,55.9,29.99,SSW,192,8.0,10.0,68,0.00,,,0.01,278,Wunderground v.1.15,2013-01-29 19:17:00,
2013-01-29 14:22:00,66.9,55.6,29.99,SW,218,9.0,12.0,67,0.00,,,0.01,283,Wunderground v.1.15,2013-01-29 19:22:00,
2013-01-29 14:28:00,66.9,55.6,29.98,South,184,10.0,16.0,67,0.00,,,0.01,258,Wunderground v.1.15,2013-01-29 19:28:00,
2013-01-29 14:33:00,67.0,56.5,29.98,SSW,211,9.0,10.0,69,0.00,,,0.01,290,Wunderground v.1.15,2013-01-29 19:33:00,
2013-01-29 14:38:00,67.2,55.9,29.98,SSW,205,8.0,14.0,67,0.00,,,0.01,253,Wunderground v.1.15,2013-01-29 19:38:00,
2013-01-29 14:44:00,67.3,56.4,29.99,SSW,211,8.0,8.0,68,0.00,,,0.01,237,Wunderground v.1.15,2013-01-29 19:44:00,
2013-01-29 14:49:00,67.5,56.2,29.98,South,183,4.0,8.0,67,0.00,,,0.01,257,Wunderground v.1.15,2013-01-29 19:49:00,
2013-01-29 14:55:00,67.7,56.3,29.99,North,360,3.0,7.0,67,0.00,,,0.01,213,Wunderground v.1.15,2013-01-29 19:55:00,
2013-01-29 15:00:00,67.8,56.0,29.98,SW,229,5.0,7.0,66,0.00,,,0.01,207,Wunderground v.1.15,2013-01-29 20:00:00,
2013-01-29 15:06:00,67.8,56.4,29.98,SSW,209,7.0,13.0,67,0.00,,,0.01,185,Wunderground v.1.15,2013-01-29 20:06:00,
2013-01-29 15:11:00,67.6,57.1,29.98,North,360,6.0,9.0,69,0.00,,,0.01,185,Wunderground v.1.15,2013-01-29 20:11:00,
2013-01-29 15:16:00,67.6,56.7,29.98,SW,215,6.0,9.0,68,0.00,,,0.01,301,Wunderground v.1.15,2013-01-29 20:16:00,
2013-01-29 15:21:00,67.8,56.4,29.98,North,360,5.0,6.0,67,0.00,,,0.01,204,Wunderground v.1.15,2013-01-29 20:21:00,
2013-01-29 15:27:00,68.0,56.6,29.98,SW,221,5.0,11.0,67,0.00,,,0.01,163,Wunderground v.1.15,2013-01-29 20:27:00,
2013-01-29 15:33:00,67.8,56.0,29.98,SW,220,8.0,13.0,66,0.00,,,0.01,151,Wunderground v.1.15,2013-01-29 20:33:00,
2013-01-29 15:38:00,67.7,56.3,29.98,North,360,8.0,13.0,67,0.00,,,0.01,163,Wunderground v.1.15,2013-01-29 20:38:00,
2013-01-29 15:44:00,67.6,56.2,29.98,SW,221,7.0,13.0,67,0.00,,,0.01,236,Wunderground v.1.15,2013-01-29 20:44:00,
2013-01-29 15:49:00,67.8,56.4,29.98,SW,235,7.0,13.0,67,0.00,,,0.01,197,Wunderground v.1.15,2013-01-29 20:49:00,
2013-01-29 15:54:00,68.0,56.2,29.98,West,261,8.0,10.0,66,0.00,,,0.01,276,Wunderground v.1.15,2013-01-29 20:54:00,
2013-01-29 16:00:00,68.2,56.0,29.98,South,188,9.0,9.0,65,0.00,,,0.01,83,Wunderground v.1.15,2013-01-29 21:00:00,
2013-01-29 16:06:00,67.9,56.5,29.97,SW,227,7.0,9.0,67,0.00,,,0.01,148,Wunderground v.1.15,2013-01-29 21:06:00,
2013-01-29 16:11:00,67.4,55.6,29.97,SW,227,8.0,9.0,66,0.00,,,0.01,181,Wunderground v.1.15,2013-01-29 21:11:00,
2013-01-29 16:17:00,67.3,56.0,29.97,WSW,251,8.0,9.0,67,0.00,,,0.01,98,Wunderground v.1.15,2013-01-29 21:17:00,
2013-01-29 16:22:00,67.1,56.2,29.97,SW,231,6.0,7.0,68,0.00,,,0.01,62,Wunderground v.1.15,2013-01-29 21:22:00,
2013-01-29 16:28:00,66.6,56.1,29.97,West,267,4.0,7.0,69,0.00,,,0.01,58,Wunderground v.1.15,2013-01-29 21:28:00,
2013-01-29 16:33:00,65.8,55.7,29.97,WSW,241,3.0,4.0,70,0.00,,,0.01,65,Wunderground v.1.15,2013-01-29 21:33:00,
2013-01-29 16:38:00,64.9,55.7,29.97,WSW,254,3.0,4.0,72,0.00,,,0.01,70,Wunderground v.1.15,2013-01-29 21:38:00,
2013-01-29 16:44:00,63.8,55.4,29.97,North,360,2.0,5.0,74,0.00,,,0.01,74,Wunderground v.1.15,2013-01-29 21:44:00,
2013-01-29 16:49:00,62.8,55.1,29.96,SW,217,1.0,5.0,76,0.00,,,0.01,53,Wunderground v.1.15,2013-01-29 21:49:00,
2013-01-29 16:54:00,61.9,55.0,29.96,SW,220,1.0,1.0,78,0.00,,,0.01,37,Wunderground v.1.15,2013-01-29 21:54:00,
2013-01-29 17:00:00,60.7,54.5,29.96,SW,223,0.0,0.0,80,0.00,,,0.01,26,Wunderground v.1.15,2013-01-29 22:00:00,
2013-01-29 17:06:00,59.4,53.9,29.96,SW,219,0.0,0.0,82,0.00,,,0.01,19,Wunderground v.1.15,2013-01-29 22:06:00,
2013-01-29 17:11:00,58.5,53.7,29.96,WNW,284,0.0,2.0,84,0.00,,,0.01,18,Wunderground v.1.15,2013-01-29 22:11:00,
2013-01-29 17:16:00,57.6,53.1,29.96,NW,307,1.0,2.0,85,0.00,,,0.01,12,Wunderground v.1.15,2013-01-29 22:16:00,
2013-01-29 17:21:00,56.7,52.9,29.96,NW,315,2.0,4.0,87,0.00,,,0.01,9,Wunderground v.1.15,2013-01-29 22:21:00,
2013-01-29 17:27:00,55.9,52.1,29.96,NW,317,4.0,5.0,87,0.00,,,0.01,5,Wunderground v.1.15,2013-01-29 22:27:00,
2013-01-29 17:32:00,55.1,51.6,29.96,NW,315,4.0,4.0,88,0.00,,,0.01,0,Wunderground v.1.15,2013-01-29 22:32:00,
2013-01-29 17:38:00,54.3,51.1,29.95,NW,314,2.0,4.0,89,0.00,,,0.01,0,Wunderground v.1.15,2013-01-29 22:38:00,
2013-01-29 17:44:00,53.5,50.9,29.95,NW,316,2.0,4.0,91,0.00,,,0.01,0,Wunderground v.1.15,2013-01-29 22:44:00,
2013-01-29 17:49:00,52.9,50.6,29.95,NW,306,3.0,4.0,92,0.00,,,0.01,0,Wunderground v.1.15,2013-01-29 22:49:00,
2013-01-29 17:54:00,52.5,50.2,29.95,WNW,298,3.0,5.0,92,0.00,,,0.01,0,Wunderground v.1.15,2013-01-29 22:54:00,
2013-01-29 18:00:00,51.8,49.8,29.95,WNW,296,2.0,2.0,93,0.00,,,0.01,0,Wunderground v.1.15,2013-01-29 23:00:00,
2013-01-29 18:06:00,51.4,49.7,29.95,WNW,296,1.0,2.0,94,0.00,,,0.01,0,Wunderground v.1.15,2013-01-29 23:06:00,
2013-01-29 18:11:00,51.1,49.7,29.95,WNW,298,0.0,1.0,95,0.00,,,0.01,0,Wunderground v.1.15,2013-01-29 23:11:00,
2013-01-29 18:16:00,50.8,49.4,29.95,WNW,298,0.0,1.0,95,0.00,,,0.01,0,Wunderground v.1.15,2013-01-29 23:16:00,
2013-01-29 18:22:00,50.5,49.4,29.95,WNW,298,1.0,2.0,96,0.00,,,0.01,0,Wunderground v.1.15,2013-01-29 23:22:00,
2013-01-29 18:27:00,50.2,49.1,29.95,WNW,298,2.0,2.0,96,0.00,,,0.01,0,Wunderground v.1.15,2013-01-29 23:27:00,
2013-01-29 18:33:00,49.9,48.8,29.95,WNW,298,1.0,2.0,96,0.00,,,0.01,0,Wunderground v.1.15,2013-01-29 23:33:00,
2013-01-29 18:38:00,49.8,49.0,29.95,SW,233,1.0,2.0,97,0.00,,,0.01,0,Wunderground v.1.15,2013-01-29 23:38:00,
2013-01-29 18:43:00,49.6,48.8,29.95,SW,233,1.0,2.0,97,0.00,,,0.01,0,Wunderground v.1.15,2013-01-29 23:43:00,
2013-01-29 18:49:00,49.4,48.6,29.95,SW,232,1.0,3.0,97,0.00,,,0.01,0,Wunderground v.1.15,2013-01-29 23:49:00,
2013-01-29 18:54:00,49.2,48.4,29.95,WSW,242,1.0,4.0,97,0.00,,,0.01,0,Wunderground v.1.15,2013-01-29 23:54:00,
2013-01-29 19:00:00,49.1,48.6,29.95,West,281,2.0,2.0,98,0.00,,,0.01,0,Wunderground v.1.15,2013-01-30 00:00:00,
2013-01-29 19:06:00,48.9,48.1,29.95,West,277,1.0,2.0,97,0.00,,,0.01,0,Wunderground v.1.15,2013-01-30 00:06:00,
2013-01-29 19:11:00,48.5,47.7,29.95,West,281,0.0,0.0,97,0.00,,,0.01,0,Wunderground v.1.15,2013-01-30 00:11:00,
2013-01-29 19:16:00,48.3,47.8,29.95,SSW,212,1.0,4.0,98,0.00,,,0.01,0,Wunderground v.1.15,2013-01-30 00:16:00,
2013-01-29 19:22:00,48.1,47.6,29.95,SSW,210,4.0,4.0,98,0.00,,,0.01,0,Wunderground v.1.15,2013-01-30 00:22:00,
2013-01-29 19:27:00,48.0,47.7,29.95,SSW,212,3.0,4.0,99,0.00,,,0.01,0,Wunderground v.1.15,2013-01-30 00:27:00,
2013-01-29 19:33:00,47.8,47.5,29.95,SSW,213,2.0,3.0,99,0.00,,,0.01,0,Wunderground v.1.15,2013-01-30 00:33:00,
2013-01-29 19:39:00,47.5,47.2,29.95,SSW,213,0.0,3.0,99,0.00,,,0.01,0,Wunderground v.1.15,2013-01-30 00:39:00,
2013-01-29 19:44:00,47.2,46.9,29.95,SSW,213,0.0,1.0,99,0.00,,,0.01,0,Wunderground v.1.15,2013-01-30 00:44:00,
2013-01-29 19:49:00,46.9,46.6,29.95,SSW,211,0.0,2.0,99,0.00,,,0.01,0,Wunderground v.1.15,2013-01-30 00:49:00,
2013-01-29 19:55:00,46.7,46.7,29.95,SSW,212,1.0,1.0,100,0.00,,,0.01,0,Wunderground v.1.15,2013-01-30 00:55:00,
2013-01-29 20:00:00,46.4,46.4,29.94,SSW,212,0.0,0.0,100,0.00,,,0.01,0,Wunderground v.1.15,2013-01-30 01:00:00,
2013-01-29 20:06:00,46.2,46.2,29.95,SSW,210,0.0,0.0,100,0.00,,,0.01,0,Wunderground v.1.15,2013-01-30 01:06:00,
2013-01-29 20:12:00,46.0,46.0,29.95,SSW,211,0.0,0.0,100,0.00,,,0.01,0,Wunderground v.1.15,2013-01-30 01:12:00,
2013-01-29 20:17:00,45.7,45.7,29.95,SSW,211,0.0,0.0,100,0.00,,,0.01,0,Wunderground v.1.15,2013-01-30 01:17:00,
2013-01-29 20:22:00,45.5,45.5,29.95,SSW,212,0.0,0.0,100,0.00,,,0.01,0,Wunderground v.1.15,2013-01-30 01:22:00,
2013-01-29 20:27:00,45.5,45.5,29.95,SSW,211,0.0,0.0,100,0.00,,,0.01,0,Wunderground v.1.15,2013-01-30 01:27:00,
2013-01-29 20:33:00,45.2,45.2,29.95,SSW,212,0.0,0.0,100,0.00,,,0.01,0,Wunderground v.1.15,2013-01-30 01:33:00,
2013-01-29 20:38:00,45.0,45.0,29.95,SSW,211,0.0,0.0,100,0.00,,,0.01,0,Wunderground v.1.15,2013-01-30 01:38:00,
2013-01-29 20:44:00,44.8,44.8,29.96,SSW,211,0.0,0.0,100,0.00,,,0.01,0,Wunderground v.1.15,2013-01-30 01:44:00,
2013-01-29 20:49:00,44.5,44.5,29.95,SSW,211,0.0,0.0,100,0.00,,,0.01,0,Wunderground v.1.15,2013-01-30 01:49:00,
2013-01-29 20:54:00,44.4,44.4,29.95,SSW,212,0.0,0.0,100,0.00,,,0.01,0,Wunderground v.1.15,2013-01-30 01:54:00,
2013-01-29 21:00:00,44.1,44.1,29.94,SSW,210,0.0,0.0,100,0.00,,,0.01,0,Wunderground v.1.15,2013-01-30 02:00:00,
2013-01-29 21:06:00,43.9,43.9,29.94,SSW,210,0.0,0.0,100,0.00,,,0.01,0,Wunderground v.1.15,2013-01-30 02:06:00,
2013-01-29 21:11:00,43.8,43.8,29.94,SSW,211,0.0,0.0,100,0.00,,,0.01,0,Wunderground v.1.15,2013-01-30 02:11:00,
2013-01-29 21:16:00,43.7,43.7,29.94,SSW,213,0.0,0.0,100,0.00,,,0.01,0,Wunderground v.1.15,2013-01-30 02:16:00,
2013-01-29 21:22:00,43.4,43.4,29.94,SSW,211,0.0,0.0,100,0.00,,,0.01,0,Wunderground v.1.15,2013-01-30 02:22:00,
2013-01-29 21:27:00,43.2,43.2,29.94,SSW,212,0.0,0.0,100,0.00,,,0.01,0,Wunderground v.1.15,2013-01-30 02:27:00,
2013-01-29 21:32:00,43.1,43.1,29.94,SSW,211,0.0,0.0,100,0.00,,,0.01,0,Wunderground v.1.15,2013-01-30 02:32:00,
2013-01-29 21:38:00,43.0,43.0,29.94,SSW,213,0.0,1.0,100,0.00,,,0.01,0,Wunderground v.1.15,2013-01-30 02:38:00,
2013-01-29 21:43:00,43.0,43.0,29.94,SSW,213,0.0,0.0,100,0.00,,,0.01,0,Wunderground v.1.15,2013-01-30 02:43:00,
2013-01-29 21:48:00,42.9,42.9,29.94,SSW,211,0.0,0.0,100,0.00,,,0.01,0,Wunderground v.1.15,2013-01-30 02:48:00,
2013-01-29 21:54:00,42.7,42.7,29.94,SSW,211,0.0,0.0,100,0.00,,,0.01,0,Wunderground v.1.15,2013-01-30 02:54:00,
2013-01-29 21:59:00,42.6,42.6,29.95,SSW,213,0.0,0.0,100,0.00,,,0.01,0,Wunderground v.1.15,2013-01-30 02:59:00,
2013-01-29 22:05:00,42.4,42.4,29.95,SSW,213,0.0,0.0,100,0.00,,,0.01,0,Wunderground v.1.15,2013-01-30 03:05:00,
2013-01-29 22:10:00,42.2,42.2,29.95,SSW,211,0.0,0.0,100,0.00,,,0.01,0,Wunderground v.1.15,2013-01-30 03:10:00,
2013-01-29 22:16:00,41.9,41.9,29.94,WSW,245,1.0,4.0,100,0.00,,,0.01,0,Wunderground v.1.15,2013-01-30 03:16:00,
2013-01-29 22:21:00,41.8,41.8,29.94,WSW,245,1.0,2.0,100,0.00,,,0.01,0,Wunderground v.1.15,2013-01-30 03:21:00,
2013-01-29 22:26:00,41.6,41.6,29.94,WSW,243,1.0,2.0,100,0.00,,,0.01,0,Wunderground v.1.15,2013-01-30 03:26:00,
2013-01-29 22:32:00,41.4,41.4,29.94,WSW,246,0.0,2.0,100,0.00,,,0.01,0,Wunderground v.1.15,2013-01-30 03:32:00,
2013-01-29 22:37:00,41.2,41.2,29.93,WSW,242,0.0,2.0,100,0.00,,,0.01,0,Wunderground v.1.15,2013-01-30 03:37:00,
2013-01-29 22:43:00,41.0,41.0,29.93,WSW,246,0.0,0.0,100,0.00,,,0.01,0,Wunderground v.1.15,2013-01-30 03:43:00,
2013-01-29 22:48:00,40.8,40.8,29.93,WSW,243,0.0,0.0,100,0.00,,,0.01,0,Wunderground v.1.15,2013-01-30 03:48:00,
2013-01-29 22:53:00,40.7,40.7,29.93,WSW,240,0.0,0.0,100,0.00,,,0.01,0,Wunderground v.1.15,2013-01-30 03:53:00,
2013-01-29 22:59:00,40.6,40.6,29.93,WSW,244,0.0,0.0,100,0.00,,,0.01,0,Wunderground v.1.15,2013-01-30 03:59:00,
2013-01-29 23:04:00,40.6,40.6,29.92,WSW,242,0.0,0.0,100,0.00,,,0.01,0,Wunderground v.1.15,2013-01-30 04:04:00,
2013-01-29 23:10:00,40.6,40.6,29.93,WSW,244,0.0,0.0,100,0.00,,,0.01,0,Wunderground v.1.15,2013-01-30 04:10:00,
2013-01-29 23:15:00,40.6,40.6,29.93,WSW,242,0.0,0.0,100,0.00,,,0.01,0,Wunderground v.1.15,2013-01-30 04:15:00,
2013-01-29 23:20:00,40.6,40.6,29.92,WSW,246,0.0,0.0,100,0.00,,,0.01,0,Wunderground v.1.15,2013-01-30 04:20:00,
2013-01-29 23:26:00,40.6,40.6,29.92,WSW,242,0.0,0.0,100,0.00,,,0.01,0,Wunderground v.1.15,2013-01-30 04:26:00,
2013-01-29 23:31:00,40.6,40.6,29.92,WSW,243,0.0,0.0,100,0.00,,,0.01,0,Wunderground v.1.15,2013-01-30 04:31:00,
2013-01-29 23:36:00,40.5,40.5,29.92,WSW,244,0.0,0.0,100,0.00,,,0.01,0,Wunderground v.1.15,2013-01-30 04:36:00,
2013-01-29 23:42:00,40.4,40.4,29.92,WSW,243,0.0,0.0,100,0.00,,,0.01,0,Wunderground v.1.15,2013-01-30 04:42:00,
2013-01-29 23:47:00,40.2,40.2,29.91,WSW,245,0.0,0.0,100,0.00,,,0.01,0,Wunderground v.1.15,2013-01-30 04:47:00,
2013-01-29 23:52:00,40.0,40.0,29.92,WSW,243,0.0,0.0,100,0.00,,,0.01,0,Wunderground v.1.15,2013-01-30 04:52:00,
2013-01-29 23:58:00,39.9,39.9,29.91,WSW,244,0.0,0.0,100,0.00,,,0.00,0,Wunderground v.1.15,2013-01-30 04:58:00,